Time;durP1;ratioP1;P1;durP2;ratioP2;P2;SDS_P1;SDS_P2;PMS_P1;PMS_P2;Temp;Humidity;BMP_temperature;BMP_pressure;BME280_temperature;BME280_humidity;BME280_pressure;Samples;Min_cycle;Max_cycle;Signal;HPM_P1;HPM_P2
2023/09/15 00:01:00;;;;;;;5.60;2.75;;;14.50;99.90;;;;;;2078122;28;20021;-72
2023/09/15 00:02:02;;;;;;;4.45;2.95;;;14.50;99.90;;;;;;2068979;28;20030;-72
2023/09/15 00:03:03;;;;;;;4.53;3.50;;;14.50;99.90;;;;;;2070488;28;20014;-72
2023/09/15 00:04:06;;;;;;;4.82;3.00;;;14.50;99.90;;;;;;2078532;28;20049;-72
2023/09/15 00:05:08;;;;;;;6.50;3.58;;;14.50;99.90;;;;;;2078348;28;20539;-72
2023/09/15 00:06:09;;;;;;;3.53;2.92;;;14.50;99.90;;;;;;2079065;28;20037;-72
2023/09/15 00:07:09;;;;;;;6.05;2.97;;;14.50;99.90;;;;;;2076706;28;20029;-72
2023/09/15 00:08:10;;;;;;;4.82;2.88;;;14.50;99.90;;;;;;2076866;28;20041;-72
2023/09/15 00:09:18;;;;;;;6.63;2.85;;;14.40;99.90;;;;;;2077079;28;20075;-72
2023/09/15 00:10:19;;;;;;;6.15;3.20;;;14.40;99.90;;;;;;2077588;28;20028;-72
2023/09/15 00:11:20;;;;;;;6.43;3.15;;;14.40;99.90;;;;;;2077796;28;20116;-72
2023/09/15 00:12:21;;;;;;;4.97;3.22;;;14.40;99.90;;;;;;2078177;28;20022;-72
2023/09/15 00:13:22;;;;;;;4.25;2.88;;;14.40;99.90;;;;;;2080237;28;20025;-72
2023/09/15 00:14:23;;;;;;;5.57;3.47;;;14.30;99.90;;;;;;2079190;28;20026;-72
2023/09/15 00:15:24;;;;;;;3.83;2.67;;;14.30;99.90;;;;;;2078838;28;20032;-72
2023/09/15 00:16:25;;;;;;;5.45;3.88;;;14.30;99.90;;;;;;2078711;28;20476;-72
2023/09/15 00:17:26;;;;;;;6.60;3.40;;;14.30;99.90;;;;;;2078759;28;21000;-72
2023/09/15 00:18:26;;;;;;;5.43;2.97;;;14.30;99.90;;;;;;2077581;28;20036;-72
2023/09/15 00:19:27;;;;;;;4.22;3.17;;;14.30;99.90;;;;;;2077934;28;20029;-72
2023/09/15 00:20:27;;;;;;;5.43;3.00;;;14.30;99.90;;;;;;2077332;28;20021;-72
2023/09/15 00:21:28;;;;;;;5.18;3.42;;;14.20;99.90;;;;;;2076426;28;20027;-72
2023/09/15 00:22:28;;;;;;;4.32;3.03;;;14.20;99.90;;;;;;2077230;28;20037;-72
2023/09/15 00:23:29;;;;;;;5.30;3.45;;;14.30;99.90;;;;;;2079165;28;20025;-72
2023/09/15 00:24:29;;;;;;;3.63;2.92;;;14.20;99.90;;;;;;2079224;28;20022;-72
2023/09/15 00:25:30;;;;;;;5.00;3.30;;;14.20;99.90;;;;;;2077836;28;20511;-72
2023/09/15 00:26:32;;;;;;;3.47;3.00;;;14.20;99.90;;;;;;2077917;28;20010;-72
2023/09/15 00:27:32;;;;;;;4.43;3.40;;;14.20;99.90;;;;;;2079058;28;20021;-72
2023/09/15 00:28:33;;;;;;;6.47;3.40;;;14.20;99.90;;;;;;2078593;28;20049;-72
2023/09/15 00:29:33;;;;;;;4.32;2.97;;;14.10;99.90;;;;;;2079476;28;20040;-72
2023/09/15 00:30:34;;;;;;;4.38;3.13;;;14.10;99.90;;;;;;2078290;28;20057;-72
2023/09/15 00:31:35;;;;;;;7.13;3.60;;;14.10;99.90;;;;;;2078514;28;20361;-72
2023/09/15 00:32:36;;;;;;;10.27;3.22;;;14.10;99.90;;;;;;2078887;28;20022;-72
2023/09/15 00:33:36;;;;;;;6.10;2.88;;;14.10;99.90;;;;;;2076682;28;20495;-72
2023/09/15 00:34:37;;;;;;;4.68;3.03;;;14.10;99.90;;;;;;2077877;28;20034;-72
2023/09/15 00:35:37;;;;;;;7.18;3.10;;;14.10;99.90;;;;;;2076745;28;20029;-72
2023/09/15 00:36:38;;;;;;;2.88;2.60;;;14.00;99.90;;;;;;2078346;28;20034;-72
2023/09/15 00:37:38;;;;;;;4.80;3.03;;;14.10;99.90;;;;;;2079592;28;20641;-72
2023/09/15 00:38:39;;;;;;;5.22;2.90;;;14.00;99.90;;;;;;2077406;28;20057;-72
2023/09/15 00:39:39;;;;;;;3.65;2.90;;;14.00;99.90;;;;;;2076658;28;20025;-72
2023/09/15 00:40:40;;;;;;;3.38;2.72;;;14.00;99.90;;;;;;2075999;28;20097;-72
2023/09/15 00:41:40;;;;;;;14.75;3.67;;;14.00;99.90;;;;;;2078278;28;20435;-72
2023/09/15 00:42:43;;;;;;;6.30;3.28;;;14.00;99.90;;;;;;2078218;28;20030;-72
2023/09/15 00:43:43;;;;;;;5.80;3.15;;;14.00;99.90;;;;;;2076413;28;20044;-72
2023/09/15 00:44:45;;;;;;;5.30;3.22;;;14.00;99.90;;;;;;2079103;28;20032;-72
2023/09/15 00:45:45;;;;;;;6.05;3.05;;;14.00;99.90;;;;;;2078848;28;20375;-72
2023/09/15 00:46:46;;;;;;;5.47;2.92;;;13.90;99.90;;;;;;2077651;28;20079;-72
2023/09/15 00:47:50;;;;;;;6.13;3.40;;;14.00;99.90;;;;;;2078414;28;20029;-72
2023/09/15 00:48:51;;;;;;;6.47;3.15;;;13.90;99.90;;;;;;2070258;28;20116;-72
2023/09/15 00:49:52;;;;;;;4.70;3.10;;;13.90;99.90;;;;;;2070673;28;20037;-72
2023/09/15 00:50:53;;;;;;;3.95;3.13;;;13.90;99.90;;;;;;2077722;28;20068;-72
2023/09/15 00:51:53;;;;;;;5.60;3.38;;;13.90;99.90;;;;;;2076968;28;20643;-72
2023/09/15 00:53:00;;;;;;;3.13;2.83;;;13.80;99.90;;;;;;2077055;28;20029;-72
2023/09/15 00:54:01;;;;;;;3.65;3.00;;;13.80;99.90;;;;;;2078173;28;20025;-72
2023/09/15 00:55:03;;;;;;;6.18;3.90;;;13.80;99.90;;;;;;2077226;28;20032;-72
2023/09/15 00:56:05;;;;;;;4.85;3.47;;;13.80;99.90;;;;;;2077353;28;20017;-72
2023/09/15 00:57:07;;;;;;;4.85;3.13;;;13.80;99.90;;;;;;2077266;28;20021;-72
2023/09/15 00:58:11;;;;;;;5.20;3.22;;;13.80;99.90;;;;;;2076401;28;20025;-72
2023/09/15 00:59:13;;;;;;;5.55;2.90;;;13.80;99.90;;;;;;2078690;28;20025;-72
2023/09/15 01:00:14;;;;;;;4.80;2.80;;;13.80;99.90;;;;;;2078069;28;20386;-72
2023/09/15 01:01:16;;;;;;;4.35;3.42;;;13.70;99.90;;;;;;2076984;28;20083;-72
2023/09/15 01:02:17;;;;;;;8.23;3.60;;;13.70;99.90;;;;;;2076930;28;20021;-72
2023/09/15 01:03:21;;;;;;;6.43;3.15;;;13.70;99.90;;;;;;2077186;28;20535;-72
2023/09/15 01:04:23;;;;;;;4.40;3.00;;;13.70;99.90;;;;;;2076569;28;20030;-72
2023/09/15 01:05:24;;;;;;;4.88;2.97;;;13.70;99.90;;;;;;2076734;28;20041;-72
2023/09/15 01:06:26;;;;;;;3.33;2.88;;;13.70;99.90;;;;;;2077332;28;20469;-72
2023/09/15 01:07:27;;;;;;;8.30;3.35;;;13.70;99.90;;;;;;2067637;28;20491;-72
2023/09/15 01:08:28;;;;;;;7.45;3.22;;;13.70;99.90;;;;;;2067074;28;20034;-72
2023/09/15 01:09:29;;;;;;;4.50;3.00;;;13.70;99.90;;;;;;2078558;28;20036;-72
2023/09/15 01:10:30;;;;;;;7.28;3.28;;;13.60;99.90;;;;;;2078648;28;20033;-72
2023/09/15 01:11:31;;;;;;;5.22;3.22;;;13.70;99.90;;;;;;2076457;28;20122;-72
2023/09/15 01:12:33;;;;;;;7.05;3.42;;;13.60;99.90;;;;;;2076895;28;20568;-72
2023/09/15 01:13:35;;;;;;;5.60;3.30;;;13.60;99.90;;;;;;2078809;28;20575;-72
2023/09/15 01:14:35;;;;;;;4.82;2.97;;;13.60;99.90;;;;;;2076923;28;20124;-72
2023/09/15 01:16:00;;;;;;;4.32;3.00;;;13.60;99.90;;;;;;2077989;28;20025;-72
2023/09/15 01:17:11;;;;;;;5.05;3.05;;;13.60;99.90;;;;;;2076391;28;20025;-72
2023/09/15 01:18:30;;;;;;;5.47;3.42;;;13.50;99.90;;;;;;2078009;28;20476;-72
2023/09/15 01:19:41;;;;;;;4.95;3.20;;;13.50;99.90;;;;;;2077203;28;20088;-72
2023/09/15 01:20:57;;;;;;;5.10;3.35;;;13.50;99.90;;;;;;2068315;28;20034;-72
2023/09/15 01:22:00;;;;;;;3.35;2.47;;;13.50;99.90;;;;;;2071972;28;20057;-72
2023/09/15 01:23:09;;;;;;;4.50;2.97;;;13.50;99.90;;;;;;2077159;28;20064;-72
2023/09/15 01:24:18;;;;;;;5.00;3.15;;;13.40;99.90;;;;;;2076832;28;20443;-72
2023/09/15 01:25:51;;;;;;;4.28;3.30;;;13.50;99.90;;;;;;2076791;28;20056;-72
2023/09/15 01:27:26;;;;;;;4.90;3.58;;;13.40;99.90;;;;;;2078268;28;20025;-72
2023/09/15 01:29:03;;;;;;;5.60;3.70;;;13.40;99.90;;;;;;2065825;28;20167;-72
2023/09/15 01:30:05;;;;;;;4.63;3.13;;;13.30;99.90;;;;;;2069309;28;20554;-72
2023/09/15 01:31:07;;;;;;;6.18;3.97;;;13.30;99.90;;;;;;2074988;28;20041;-72
2023/09/15 01:32:10;;;;;;;4.43;3.15;;;13.30;99.90;;;;;;2078372;28;20025;-72
2023/09/15 01:33:13;;;;;;;3.60;3.10;;;13.30;99.90;;;;;;2076468;28;20036;-72
2023/09/15 01:34:16;;;;;;;5.20;3.20;;;13.30;99.90;;;;;;2076289;28;20031;-72
2023/09/15 01:35:17;;;;;;;4.75;2.83;;;13.30;99.90;;;;;;2076250;28;20587;-72
2023/09/15 01:36:18;;;;;;;4.03;2.95;;;13.30;99.90;;;;;;2076715;28;20708;-72
2023/09/15 01:37:20;;;;;;;4.93;3.58;;;13.30;99.90;;;;;;2077666;28;20037;-72
2023/09/15 01:38:21;;;;;;;7.47;3.60;;;13.30;99.90;;;;;;2075769;28;20480;-72
2023/09/15 01:39:22;;;;;;;8.63;3.40;;;13.30;99.90;;;;;;2076146;28;20100;-72
2023/09/15 01:40:22;;;;;;;6.07;3.55;;;13.30;99.90;;;;;;2077486;28;20033;-72
2023/09/15 01:41:23;;;;;;;3.35;3.03;;;13.20;99.90;;;;;;2075494;28;20083;-72
2023/09/15 01:42:23;;;;;;;3.47;3.13;;;13.20;99.90;;;;;;2078495;28;20033;-72
2023/09/15 01:43:24;;;;;;;3.97;3.00;;;13.30;99.90;;;;;;2076678;28;20060;-72
2023/09/15 01:44:25;;;;;;;9.82;3.00;;;13.20;99.90;;;;;;2077551;28;20036;-72
2023/09/15 01:45:26;;;;;;;4.25;3.33;;;13.20;99.90;;;;;;2076982;28;20112;-72
2023/09/15 01:46:26;;;;;;;3.63;2.88;;;13.30;99.90;;;;;;2078181;28;20037;-72
2023/09/15 01:47:28;;;;;;;3.40;3.10;;;13.20;99.90;;;;;;2077476;28;20031;-72
2023/09/15 01:48:30;;;;;;;5.00;3.22;;;13.20;99.90;;;;;;2075394;28;20048;-72
2023/09/15 01:49:31;;;;;;;6.50;3.47;;;13.20;99.90;;;;;;2077070;28;20100;-72
2023/09/15 01:50:33;;;;;;;4.43;3.05;;;13.20;99.90;;;;;;2076396;28;20037;-72
2023/09/15 01:51:34;;;;;;;4.50;3.28;;;13.20;99.90;;;;;;2076755;28;20053;-72
2023/09/15 01:52:34;;;;;;;3.35;2.90;;;13.20;99.90;;;;;;2076422;28;20032;-72
2023/09/15 01:53:36;;;;;;;4.97;3.03;;;13.20;99.90;;;;;;2076779;28;20032;-72
2023/09/15 01:54:37;;;;;;;3.47;2.85;;;13.20;99.90;;;;;;2076103;28;20112;-72
2023/09/15 01:55:38;;;;;;;3.95;3.17;;;13.20;99.90;;;;;;2078891;28;20028;-72
2023/09/15 01:56:38;;;;;;;4.40;3.17;;;13.10;99.90;;;;;;2076002;28;20040;-72
2023/09/15 01:57:39;;;;;;;4.28;3.05;;;13.20;99.90;;;;;;2077297;28;20400;-72
2023/09/15 01:58:39;;;;;;;3.40;2.92;;;13.10;99.90;;;;;;2075989;28;20537;-72
2023/09/15 01:59:40;;;;;;;5.57;3.42;;;13.10;99.90;;;;;;2077423;28;20031;-72
2023/09/15 02:00:40;;;;;;;5.53;3.05;;;13.10;99.90;;;;;;2076053;28;20042;-72
2023/09/15 02:01:41;;;;;;;5.00;3.42;;;13.10;99.90;;;;;;2069410;28;20029;-72
2023/09/15 02:02:42;;;;;;;3.58;2.90;;;13.10;99.90;;;;;;2070899;28;20396;-72
2023/09/15 02:03:42;;;;;;;3.13;2.80;;;13.10;99.90;;;;;;2077423;28;20021;-72
2023/09/15 02:04:43;;;;;;;3.33;3.03;;;13.10;99.90;;;;;;2077859;28;20104;-72
2023/09/15 02:05:44;;;;;;;5.00;2.90;;;13.10;99.90;;;;;;2078061;28;20505;-72
2023/09/15 02:06:44;;;;;;;4.22;3.05;;;13.10;99.90;;;;;;2070237;28;20021;-72
2023/09/15 02:07:45;;;;;;;4.13;3.00;;;13.10;99.90;;;;;;2069097;28;20476;-72
2023/09/15 02:08:46;;;;;;;4.57;3.13;;;13.00;99.90;;;;;;2076653;28;20052;-72
2023/09/15 02:09:46;;;;;;;5.45;3.45;;;13.00;99.90;;;;;;2075794;28;20025;-72
2023/09/15 02:10:47;;;;;;;3.35;3.05;;;13.00;99.90;;;;;;2076069;28;20545;-72
2023/09/15 02:11:47;;;;;;;3.47;3.17;;;13.00;99.90;;;;;;2075942;28;20424;-72
2023/09/15 02:12:48;;;;;;;5.00;3.30;;;13.00;99.90;;;;;;2075582;28;20024;-72
2023/09/15 02:13:48;;;;;;;4.95;3.17;;;13.00;99.90;;;;;;2067666;28;20062;-72
2023/09/15 02:14:49;;;;;;;3.83;3.45;;;13.00;99.90;;;;;;2068544;28;20038;-72
2023/09/15 02:15:53;;;;;;;5.22;3.30;;;13.00;99.90;;;;;;2077542;28;20021;-72
2023/09/15 02:16:54;;;;;;;4.07;3.50;;;13.00;99.90;;;;;;2075243;28;20030;-72
2023/09/15 02:17:59;;;;;;;4.20;3.33;;;13.00;99.90;;;;;;2074518;28;20578;-72
2023/09/15 02:19:00;;;;;;;6.60;3.08;;;13.00;99.90;;;;;;2075800;28;20551;-72
2023/09/15 02:20:03;;;;;;;4.15;3.25;;;13.00;99.90;;;;;;2076752;28;20017;-72
2023/09/15 02:21:03;;;;;;;3.80;3.25;;;12.90;99.90;;;;;;2075559;28;20030;-72
2023/09/15 02:22:04;;;;;;;4.75;3.25;;;12.90;99.90;;;;;;2076165;28;20025;-72
2023/09/15 02:23:04;;;;;;;3.55;3.25;;;12.90;99.90;;;;;;2075757;28;20048;-72
2023/09/15 02:24:05;;;;;;;5.95;3.78;;;12.90;99.90;;;;;;2077303;28;20135;-72
2023/09/15 02:25:06;;;;;;;5.07;3.50;;;12.90;99.90;;;;;;2074833;28;20052;-72
2023/09/15 02:26:07;;;;;;;4.65;3.25;;;12.90;99.90;;;;;;2077159;28;20079;-72
2023/09/15 02:27:07;;;;;;;5.00;3.00;;;12.90;99.90;;;;;;2076799;28;20035;-72
2023/09/15 02:28:08;;;;;;;4.63;3.47;;;12.90;99.90;;;;;;2076796;28;20503;-72
2023/09/15 02:29:08;;;;;;;6.47;3.47;;;12.90;99.90;;;;;;2076159;28;20034;-72
2023/09/15 02:30:09;;;;;;;6.25;3.08;;;12.90;99.90;;;;;;2077634;28;20108;-72
2023/09/15 02:31:10;;;;;;;5.90;3.30;;;12.90;99.90;;;;;;2077636;28;20032;-72
2023/09/15 02:32:10;;;;;;;4.75;2.90;;;12.90;99.90;;;;;;2076286;28;20033;-72
2023/09/15 02:33:11;;;;;;;8.40;3.55;;;12.90;99.90;;;;;;2077864;28;20699;-72
2023/09/15 02:34:11;;;;;;;4.45;3.10;;;12.80;99.90;;;;;;2077256;28;20029;-72
2023/09/15 02:35:12;;;;;;;4.78;3.20;;;12.80;99.90;;;;;;2077739;28;20513;-72
2023/09/15 02:36:12;;;;;;;5.85;3.40;;;12.80;99.90;;;;;;2077597;28;20029;-72
2023/09/15 02:37:14;;;;;;;4.72;3.53;;;12.80;99.90;;;;;;2076563;28;20036;-72
2023/09/15 02:38:15;;;;;;;3.72;3.28;;;12.80;99.90;;;;;;2075378;28;20029;-72
2023/09/15 02:39:19;;;;;;;5.93;3.40;;;12.80;99.90;;;;;;2075902;28;20026;-72
2023/09/15 02:40:21;;;;;;;4.95;3.03;;;12.80;99.90;;;;;;2079114;28;20026;-72
2023/09/15 02:41:22;;;;;;;4.35;3.15;;;12.80;99.90;;;;;;2076431;28;20026;-72
2023/09/15 02:42:22;;;;;;;4.15;3.17;;;12.80;99.90;;;;;;2077735;28;20022;-72
2023/09/15 02:43:23;;;;;;;3.25;2.90;;;12.80;99.90;;;;;;2077192;28;20034;-72
2023/09/15 02:44:24;;;;;;;5.57;3.20;;;12.70;99.90;;;;;;2076908;28;20029;-72
2023/09/15 02:45:24;;;;;;;5.80;3.47;;;12.70;99.90;;;;;;2077382;28;20041;-72
2023/09/15 02:46:26;;;;;;;5.53;3.17;;;12.70;99.90;;;;;;2076556;28;20033;-72
2023/09/15 02:47:29;;;;;;;5.47;3.78;;;12.70;99.90;;;;;;2075852;28;20030;-72
2023/09/15 02:48:30;;;;;;;4.20;2.88;;;12.70;99.90;;;;;;2076411;28;20102;-72
2023/09/15 02:49:31;;;;;;;4.40;3.35;;;12.70;99.90;;;;;;2077315;28;20122;-72
2023/09/15 02:50:32;;;;;;;9.15;3.70;;;12.70;99.90;;;;;;2076070;28;20056;-72
2023/09/15 02:51:33;;;;;;;4.07;3.30;;;12.70;99.90;;;;;;2077069;28;20521;-72
2023/09/15 02:52:34;;;;;;;5.57;2.90;;;12.70;99.90;;;;;;2077213;28;20556;-72
2023/09/15 02:53:35;;;;;;;3.60;3.08;;;12.70;99.90;;;;;;2076536;28;20029;-72
2023/09/15 02:54:35;;;;;;;4.05;3.05;;;12.70;99.90;;;;;;2076489;28;20083;-72
2023/09/15 02:55:39;;;;;;;4.50;3.38;;;12.70;99.90;;;;;;2077702;28;20056;-72
2023/09/15 02:56:39;;;;;;;3.55;3.25;;;12.70;99.90;;;;;;2076695;28;20058;-72
2023/09/15 02:57:40;;;;;;;5.07;3.08;;;12.70;99.90;;;;;;2077642;28;20076;-72
2023/09/15 02:58:40;;;;;;;4.10;3.05;;;12.60;99.90;;;;;;2076669;28;20082;-72
2023/09/15 02:59:41;;;;;;;3.92;3.08;;;12.70;99.90;;;;;;2076176;28;20452;-72
2023/09/15 03:00:41;;;;;;;7.72;3.35;;;12.70;99.90;;;;;;2075556;28;20013;-72
2023/09/15 03:01:43;;;;;;;5.32;3.78;;;12.60;99.90;;;;;;2078126;28;20109;-72
2023/09/15 03:02:44;;;;;;;4.97;3.80;;;12.60;99.90;;;;;;2077215;28;20030;-72
2023/09/15 03:03:48;;;;;;;4.18;3.30;;;12.60;99.90;;;;;;2077801;28;20467;-72
2023/09/15 03:04:48;;;;;;;4.50;3.65;;;12.60;99.90;;;;;;2077279;28;20014;-72
2023/09/15 03:05:49;;;;;;;4.15;3.38;;;12.60;99.90;;;;;;2078238;28;20024;-72
2023/09/15 03:06:49;;;;;;;3.72;2.95;;;12.60;99.90;;;;;;2076113;28;20080;-72
2023/09/15 03:07:50;;;;;;;6.15;3.47;;;12.60;99.90;;;;;;2066915;28;20033;-72
2023/09/15 03:08:50;;;;;;;5.30;3.25;;;12.60;99.90;;;;;;2068775;28;20026;-72
2023/09/15 03:09:51;;;;;;;4.05;3.40;;;12.60;99.90;;;;;;2075697;28;20125;-72
2023/09/15 03:10:52;;;;;;;4.88;3.78;;;12.50;99.90;;;;;;2076548;28;20057;-72
2023/09/15 03:11:52;;;;;;;4.32;3.25;;;12.60;99.90;;;;;;2076951;28;20211;-72
2023/09/15 03:12:53;;;;;;;4.03;3.67;;;12.50;99.90;;;;;;2077042;28;20282;-72
2023/09/15 03:13:54;;;;;;;4.75;2.97;;;12.50;99.90;;;;;;2076721;28;20025;-72
2023/09/15 03:14:54;;;;;;;5.15;3.20;;;12.60;99.90;;;;;;2076331;28;20098;-72
2023/09/15 03:15:55;;;;;;;5.40;3.53;;;12.50;99.90;;;;;;2075516;28;20439;-72
2023/09/15 03:16:55;;;;;;;5.28;3.60;;;12.50;99.90;;;;;;2077292;28;20022;-72
2023/09/15 03:17:56;;;;;;;4.35;3.00;;;12.50;99.90;;;;;;2076206;28;20030;-72
2023/09/15 03:18:56;;;;;;;5.93;3.30;;;12.50;99.90;;;;;;2075392;28;20100;-72
2023/09/15 03:19:57;;;;;;;4.35;3.22;;;12.50;99.90;;;;;;2078426;28;20032;-72
2023/09/15 03:21:01;;;;;;;3.47;2.83;;;12.50;99.90;;;;;;2076462;28;20057;-72
2023/09/15 03:22:02;;;;;;;5.55;3.35;;;12.50;99.90;;;;;;2071770;28;20022;-72
2023/09/15 03:23:02;;;;;;;4.68;3.20;;;12.50;99.90;;;;;;2070691;28;20026;-72
2023/09/15 03:24:03;;;;;;;4.32;3.60;;;12.50;99.90;;;;;;2067557;28;20033;-72
2023/09/15 03:25:04;;;;;;;4.40;3.58;;;12.50;99.90;;;;;;2071333;28;20034;-72
2023/09/15 03:26:05;;;;;;;4.07;3.28;;;12.40;99.90;;;;;;2078504;28;20033;-72
2023/09/15 03:27:06;;;;;;;5.82;3.67;;;12.40;99.90;;;;;;2078312;28;20036;-72
2023/09/15 03:28:06;;;;;;;6.82;3.85;;;12.50;99.90;;;;;;2069351;28;20519;-72
2023/09/15 03:29:07;;;;;;;3.83;3.03;;;12.40;99.90;;;;;;2070252;28;20637;-72
2023/09/15 03:30:08;;;;;;;6.93;3.38;;;12.40;99.90;;;;;;2079455;28;20033;-72
2023/09/15 03:31:09;;;;;;;5.35;3.15;;;12.40;99.90;;;;;;2077944;28;20389;-72
2023/09/15 03:32:09;;;;;;;4.15;3.55;;;12.40;99.90;;;;;;2078749;28;20063;-72
2023/09/15 03:33:10;;;;;;;3.40;3.08;;;12.40;99.90;;;;;;2078827;28;20112;-72
2023/09/15 03:34:10;;;;;;;3.58;3.15;;;12.40;99.90;;;;;;2077514;28;20030;-72
2023/09/15 03:35:11;;;;;;;4.47;3.72;;;12.40;99.90;;;;;;2076898;28;20037;-72
2023/09/15 03:36:12;;;;;;;4.28;3.20;;;12.40;99.90;;;;;;2080065;28;20083;-72
2023/09/15 03:37:12;;;;;;;5.05;4.07;;;12.40;99.90;;;;;;2079044;28;20033;-72
2023/09/15 03:38:13;;;;;;;6.97;3.80;;;12.40;99.90;;;;;;2077594;28;20043;-72
2023/09/15 03:39:14;;;;;;;3.75;3.30;;;12.40;99.90;;;;;;2079698;28;20045;-72
2023/09/15 03:40:15;;;;;;;6.70;3.60;;;12.40;99.90;;;;;;2078444;28;20021;-72
2023/09/15 03:41:15;;;;;;;3.70;3.40;;;12.40;99.90;;;;;;2078311;28;20029;-72
2023/09/15 03:42:16;;;;;;;4.35;3.38;;;12.40;99.90;;;;;;2078894;28;20108;-72
2023/09/15 03:43:17;;;;;;;8.52;4.15;;;12.30;99.90;;;;;;2079081;28;20033;-72
2023/09/15 03:44:17;;;;;;;3.78;3.47;;;12.30;99.90;;;;;;2079315;28;20033;-72
2023/09/15 03:45:18;;;;;;;4.15;3.47;;;12.30;99.90;;;;;;2076702;28;20056;-72
2023/09/15 03:46:18;;;;;;;5.05;3.30;;;12.30;99.90;;;;;;2078530;28;20037;-72
2023/09/15 03:47:19;;;;;;;7.50;3.40;;;12.30;99.90;;;;;;2078547;28;20033;-72
2023/09/15 03:48:20;;;;;;;3.58;3.20;;;12.30;99.90;;;;;;2078097;28;20068;-72
2023/09/15 03:49:21;;;;;;;4.95;3.63;;;12.30;99.90;;;;;;2077121;28;20061;-72
2023/09/15 03:50:22;;;;;;;4.38;3.55;;;12.30;99.90;;;;;;2070651;28;20460;-72
2023/09/15 03:51:22;;;;;;;5.95;3.55;;;12.30;99.90;;;;;;2070955;28;20521;-72
2023/09/15 03:52:23;;;;;;;4.05;3.53;;;12.30;99.90;;;;;;2076734;28;20065;-72
2023/09/15 03:53:23;;;;;;;3.58;3.28;;;12.30;99.90;;;;;;2078598;28;20038;-72
2023/09/15 03:54:26;;;;;;;4.50;3.50;;;12.30;99.90;;;;;;2079833;28;20104;-72
2023/09/15 03:55:26;;;;;;;5.13;4.13;;;12.30;99.90;;;;;;2078994;28;20091;-72
2023/09/15 03:56:27;;;;;;;4.47;4.05;;;12.30;99.90;;;;;;2078317;28;20021;-72
2023/09/15 03:57:28;;;;;;;5.68;3.55;;;12.30;99.90;;;;;;2077591;28;20366;-72
2023/09/15 03:58:28;;;;;;;7.97;3.80;;;12.30;99.90;;;;;;2078242;28;20105;-72
2023/09/15 03:59:29;;;;;;;4.53;3.67;;;12.30;99.90;;;;;;2077073;28;20025;-72
2023/09/15 04:00:29;;;;;;;3.83;3.33;;;12.30;99.90;;;;;;2076887;28;20026;-72
2023/09/15 04:01:31;;;;;;;3.95;3.45;;;12.20;99.90;;;;;;2077565;28;20053;-72
2023/09/15 04:02:31;;;;;;;6.15;4.03;;;12.20;99.90;;;;;;2078268;28;20436;-72
2023/09/15 04:03:33;;;;;;;4.70;3.70;;;12.20;99.90;;;;;;2078080;28;20048;-72
2023/09/15 04:04:34;;;;;;;5.40;3.20;;;12.20;99.90;;;;;;2078638;28;20068;-72
2023/09/15 04:05:35;;;;;;;4.35;3.08;;;12.20;99.90;;;;;;2077203;28;20056;-72
2023/09/15 04:06:35;;;;;;;4.13;3.45;;;12.20;99.90;;;;;;2079298;28;20108;-72
2023/09/15 04:07:37;;;;;;;7.07;3.40;;;12.20;99.90;;;;;;2077415;28;20076;-72
2023/09/15 04:08:38;;;;;;;4.03;3.25;;;12.10;99.90;;;;;;2078120;28;20029;-72
2023/09/15 04:09:39;;;;;;;4.55;3.40;;;12.20;99.90;;;;;;2077218;28;20049;-72
2023/09/15 04:10:39;;;;;;;3.70;3.15;;;12.10;99.90;;;;;;2077653;28;20056;-72
2023/09/15 04:11:40;;;;;;;5.68;3.97;;;12.10;99.90;;;;;;2078015;28;20026;-72
2023/09/15 04:12:42;;;;;;;5.45;3.42;;;12.10;99.90;;;;;;2077979;28;20384;-72
2023/09/15 04:13:42;;;;;;;5.13;3.97;;;12.10;99.90;;;;;;2078798;28;21466;-72
2023/09/15 04:14:43;;;;;;;4.47;3.67;;;12.10;99.90;;;;;;2078834;28;20404;-72
2023/09/15 04:15:43;;;;;;;4.60;2.95;;;12.10;99.90;;;;;;2076882;28;20515;-72
2023/09/15 04:16:44;;;;;;;5.35;3.30;;;12.10;99.90;;;;;;2079205;28;20045;-72
2023/09/15 04:17:44;;;;;;;4.35;3.15;;;12.10;99.90;;;;;;2078317;28;20069;-72
2023/09/15 04:18:45;;;;;;;4.60;3.40;;;12.10;99.90;;;;;;2079137;28;20477;-72
2023/09/15 04:19:45;;;;;;;3.55;3.17;;;12.10;99.90;;;;;;2079312;28;20045;-72
2023/09/15 04:20:49;;;;;;;4.15;3.40;;;12.10;99.90;;;;;;2079294;28;20025;-72
2023/09/15 04:21:49;;;;;;;4.53;3.70;;;12.10;99.90;;;;;;2078469;28;20024;-72
2023/09/15 04:22:50;;;;;;;4.45;3.47;;;12.10;99.90;;;;;;2079181;28;20028;-72
2023/09/15 04:23:50;;;;;;;5.32;3.65;;;12.00;99.90;;;;;;2078631;28;20112;-72
2023/09/15 04:24:52;;;;;;;3.88;3.05;;;12.10;99.90;;;;;;2076721;28;20030;-72
2023/09/15 04:25:53;;;;;;;4.25;3.22;;;12.10;99.90;;;;;;2079415;28;20021;-72
2023/09/15 04:26:53;;;;;;;6.32;3.80;;;12.00;99.90;;;;;;2077419;28;20026;-72
2023/09/15 04:27:54;;;;;;;6.15;3.95;;;12.00;99.90;;;;;;2078020;28;20480;-72
2023/09/15 04:28:55;;;;;;;8.77;4.10;;;12.00;99.90;;;;;;2078547;28;20064;-72
2023/09/15 04:29:56;;;;;;;7.57;4.10;;;12.00;99.90;;;;;;2078324;28;20104;-72
2023/09/15 04:30:57;;;;;;;5.47;3.80;;;12.10;99.90;;;;;;2078586;28;20125;-72
2023/09/15 04:31:58;;;;;;;6.85;4.40;;;12.10;99.90;;;;;;2078051;28;20018;-72
2023/09/15 04:32:59;;;;;;;5.15;3.92;;;12.00;99.90;;;;;;2079035;28;20056;-72
2023/09/15 04:34:00;;;;;;;4.93;4.40;;;12.00;99.90;;;;;;2077550;28;20021;-72
2023/09/15 04:35:01;;;;;;;5.88;4.13;;;12.00;99.90;;;;;;2070107;28;20041;-72
2023/09/15 04:36:03;;;;;;;5.07;4.00;;;12.00;99.90;;;;;;2070629;28;20757;-72
2023/09/15 04:37:03;;;;;;;4.57;4.00;;;12.00;99.90;;;;;;2077588;28;20021;-72
2023/09/15 04:38:06;;;;;;;5.55;4.18;;;12.00;99.90;;;;;;2075901;28;20030;-72
2023/09/15 04:39:07;;;;;;;6.05;4.10;;;12.00;99.90;;;;;;2070629;28;20391;-72
2023/09/15 04:40:08;;;;;;;4.07;3.67;;;12.00;99.90;;;;;;2069698;28;20723;-72
2023/09/15 04:41:08;;;;;;;5.18;4.15;;;12.00;99.90;;;;;;2077872;28;20949;-72
2023/09/15 04:42:12;;;;;;;4.72;3.78;;;12.00;99.90;;;;;;2078824;28;20037;-72
2023/09/15 04:43:12;;;;;;;4.85;4.15;;;12.00;99.90;;;;;;2077489;28;20049;-72
2023/09/15 04:44:13;;;;;;;4.68;3.35;;;12.00;99.90;;;;;;2079130;28;20026;-72
2023/09/15 04:45:13;;;;;;;5.95;4.10;;;11.90;99.90;;;;;;2079749;28;20104;-72
2023/09/15 04:46:14;;;;;;;4.55;4.05;;;11.90;99.90;;;;;;2077981;28;20124;-72
2023/09/15 04:47:33;;;;;;;6.18;4.13;;;11.90;99.90;;;;;;2079030;28;20071;-72
2023/09/15 04:48:34;;;;;;;5.28;4.07;;;11.90;99.90;;;;;;2078757;28;20025;-72
2023/09/15 04:49:35;;;;;;;4.40;4.00;;;11.90;99.90;;;;;;2079916;28;20468;-72
2023/09/15 04:50:38;;;;;;;4.65;3.97;;;11.90;99.90;;;;;;2079925;28;20431;-72
2023/09/15 04:51:40;;;;;;;5.53;3.63;;;11.90;99.90;;;;;;2078054;28;20484;-72
2023/09/15 04:52:40;;;;;;;4.30;3.90;;;11.80;99.90;;;;;;2079208;28;20052;-72
2023/09/15 04:53:41;;;;;;;4.13;3.55;;;11.90;99.90;;;;;;2079480;28;20036;-72
2023/09/15 04:54:42;;;;;;;5.60;3.97;;;11.90;99.90;;;;;;2078308;28;20053;-72
2023/09/15 04:55:42;;;;;;;4.47;4.07;;;11.90;99.90;;;;;;2078619;28;20022;-72
2023/09/15 04:56:43;;;;;;;5.70;3.85;;;11.80;99.90;;;;;;2078666;28;20022;-72
2023/09/15 04:57:45;;;;;;;3.88;3.55;;;11.90;99.90;;;;;;2069993;28;20092;-71
2023/09/15 04:58:45;;;;;;;4.20;3.80;;;11.80;99.90;;;;;;2068048;28;20109;-72
2023/09/15 04:59:47;;;;;;;5.60;4.05;;;11.80;99.90;;;;;;2076796;28;20067;-72
2023/09/15 05:00:48;;;;;;;5.72;4.43;;;11.80;99.90;;;;;;2078703;28;20053;-72
2023/09/15 05:01:48;;;;;;;4.78;3.58;;;11.80;99.90;;;;;;2078109;28;20021;-71
2023/09/15 05:02:49;;;;;;;4.32;3.92;;;11.80;99.90;;;;;;2076908;28;20077;-71
2023/09/15 05:03:50;;;;;;;4.78;3.97;;;11.80;99.90;;;;;;2068381;28;20034;-71
2023/09/15 05:04:52;;;;;;;6.15;4.20;;;11.80;99.90;;;;;;2070067;28;20028;-71
2023/09/15 05:05:53;;;;;;;6.13;4.00;;;11.80;99.90;;;;;;2078726;28;20528;-71
2023/09/15 05:06:53;;;;;;;4.10;3.70;;;11.80;99.90;;;;;;2068807;28;20338;-71
2023/09/15 05:07:54;;;;;;;6.70;4.18;;;11.70;99.90;;;;;;2068974;28;20029;-71
2023/09/15 05:08:55;;;;;;;4.95;4.15;;;11.80;99.90;;;;;;2078300;28;20045;-71
2023/09/15 05:09:56;;;;;;;3.80;3.40;;;11.80;99.90;;;;;;2077611;28;20064;-71
2023/09/15 05:10:56;;;;;;;4.15;3.70;;;11.80;99.90;;;;;;2075872;28;20060;-71
2023/09/15 05:11:57;;;;;;;3.97;3.67;;;11.70;99.90;;;;;;2077814;28;20035;-71
2023/09/15 05:12:58;;;;;;;4.68;4.10;;;11.70;99.90;;;;;;2077920;28;20033;-71
2023/09/15 05:13:59;;;;;;;6.00;3.80;;;11.80;99.90;;;;;;2076763;28;20017;-71
2023/09/15 05:15:00;;;;;;;7.72;5.10;;;11.70;99.90;;;;;;2077516;28;20107;-71
2023/09/15 05:16:02;;;;;;;4.40;3.97;;;11.70;99.90;;;;;;2077068;28;20092;-71
2023/09/15 05:17:03;;;;;;;5.78;4.35;;;11.70;99.90;;;;;;2079666;28;20029;-71
2023/09/15 05:18:04;;;;;;;4.82;4.13;;;11.70;99.90;;;;;;2078902;28;20034;-71
2023/09/15 05:19:04;;;;;;;7.50;4.43;;;11.70;99.90;;;;;;2077988;28;20411;-71
2023/09/15 05:20:06;;;;;;;6.53;3.83;;;11.70;99.90;;;;;;2079200;28;20392;-71
2023/09/15 05:21:07;;;;;;;4.82;4.03;;;11.70;99.90;;;;;;2077444;28;20033;-71
2023/09/15 05:22:07;;;;;;;6.80;4.40;;;11.70;99.90;;;;;;2077030;28;20106;-72